createdAt,value
2024-05-09T00:01:04.622Z,30.03
2024-05-09T00:04:29.697Z,29.40
2024-05-09T00:07:54.713Z,27.00
2024-05-09T00:11:20.894Z,26.00
2024-05-09T00:14:46.036Z,27.38
2024-05-09T00:21:53.880Z,31.97
2024-05-09T00:25:19.214Z,28.13
2024-05-09T00:28:44.223Z,24.63
2024-05-09T00:32:09.321Z,26.63
2024-05-09T00:35:34.445Z,26.90
2024-05-09T00:38:59.480Z,26.77
2024-05-09T00:42:24.444Z,26.83
2024-05-09T00:45:49.699Z,29.47
2024-05-09T00:49:15.073Z,28.97
2024-05-09T00:52:40.536Z,26.40
2024-05-09T00:56:06.861Z,29.00
2024-05-09T01:02:57.874Z,26.67
2024-05-09T01:06:23.279Z,20.63
2024-05-09T01:09:48.229Z,27.00
2024-05-09T01:13:13.390Z,28.93
2024-05-09T01:16:38.492Z,27.40
2024-05-09T01:20:10.894Z,23.87
2024-05-09T01:23:42.879Z,25.27
2024-05-09T01:27:08.325Z,27.87
2024-05-09T01:30:35.958Z,26.73
2024-05-09T01:34:03.229Z,25.77
2024-05-09T01:37:28.243Z,28.42
2024-05-09T01:40:53.534Z,26.90
2024-05-09T01:44:18.572Z,28.50
2024-05-09T01:47:43.743Z,32.17
2024-05-09T01:51:09.038Z,26.57
2024-05-09T01:54:34.513Z,31.40
2024-05-09T01:57:59.517Z,28.07
2024-05-09T02:01:24.728Z,27.50
2024-05-09T02:04:50.024Z,35.00
2024-05-09T02:08:19.349Z,29.63
2024-05-09T02:11:47.474Z,28.70
2024-05-09T02:15:13.045Z,28.10
2024-05-09T02:18:38.354Z,22.03
2024-05-09T02:22:03.606Z,29.45
2024-05-09T02:25:30.127Z,28.10
2024-05-09T02:28:55.190Z,27.43
2024-05-09T02:32:20.527Z,31.57
2024-05-09T02:35:45.695Z,22.77
2024-05-09T02:39:11.134Z,30.60
2024-05-09T02:42:36.109Z,29.03
2024-05-09T02:46:01.366Z,30.73
2024-05-09T02:49:22.198Z,27.03
2024-05-09T02:52:47.253Z,28.13
2024-05-09T02:56:12.649Z,33.07
2024-05-09T02:59:37.673Z,37.10
2024-05-09T03:03:03.142Z,32.10
2024-05-09T03:06:28.327Z,31.90
2024-05-09T03:09:53.260Z,29.90
2024-05-09T03:13:18.521Z,33.43
2024-05-09T03:16:43.708Z,32.00
2024-05-09T03:20:14.654Z,38.73
2024-05-09T03:23:45.541Z,33.88
2024-05-09T03:27:15.149Z,33.97
2024-05-09T03:30:42.630Z,37.37
2024-05-09T03:34:12.191Z,33.10
2024-05-09T03:37:40.417Z,35.17
2024-05-09T03:41:05.789Z,29.07
2024-05-09T03:44:30.820Z,33.47
2024-05-09T03:47:56.290Z,28.33
2024-05-09T03:51:21.457Z,28.05
2024-05-09T03:54:49.536Z,41.10
2024-05-09T03:58:14.571Z,39.40
2024-05-09T04:01:40.010Z,38.30
2024-05-09T04:05:05.157Z,28.97
2024-05-09T04:08:30.420Z,36.10
2024-05-09T04:11:55.931Z,39.17
2024-05-09T04:15:21.218Z,38.70
2024-05-09T04:18:46.253Z,39.83
2024-05-09T04:22:11.734Z,36.60
2024-05-09T04:25:36.792Z,43.03
2024-05-09T04:28:03.880Z,40.57
2024-05-09T04:31:29.396Z,38.93
2024-05-09T04:34:54.121Z,44.23
2024-05-09T04:38:19.151Z,43.63
2024-05-09T04:41:44.344Z,49.20
2024-05-09T04:45:09.310Z,48.13
2024-05-09T04:48:34.707Z,46.93
2024-05-09T04:52:00.121Z,54.90
2024-05-09T04:55:25.102Z,51.17
2024-05-09T04:58:50.080Z,50.03
2024-05-09T05:02:15.417Z,47.57
2024-05-09T05:05:41.291Z,54.47
2024-05-09T05:09:10.283Z,51.67
2024-05-09T05:12:53.692Z,54.90
2024-05-09T05:16:18.679Z,53.47
2024-05-09T05:19:43.962Z,55.10
2024-05-09T05:23:13.129Z,55.73
2024-05-09T05:26:40.098Z,52.60
2024-05-09T05:30:07.503Z,54.67
2024-05-09T05:33:34.831Z,63.23
2024-05-09T05:36:59.949Z,64.57
2024-05-09T05:40:32.725Z,65.27
2024-05-09T05:44:02.261Z,67.40
2024-05-09T05:47:27.683Z,60.65
2024-05-09T05:50:52.771Z,62.40
2024-05-09T05:54:18.018Z,62.73
2024-05-09T05:57:43.350Z,61.53
2024-05-09T06:01:08.670Z,54.80
2024-05-09T06:04:33.615Z,56.60
2024-05-09T06:07:58.920Z,56.57
2024-05-09T06:11:23.983Z,62.73
2024-05-09T06:14:49.246Z,60.77
2024-05-09T06:18:14.768Z,59.20
2024-05-09T06:21:40.274Z,60.65
2024-05-09T06:25:05.522Z,57.57
2024-05-09T06:28:30.679Z,64.77
2024-05-09T06:31:57.136Z,61.33
2024-05-09T06:35:24.944Z,53.87
2024-05-09T06:38:50.183Z,61.47
2024-05-09T06:42:15.390Z,55.17
2024-05-09T06:45:40.531Z,49.93
2024-05-09T06:49:08.596Z,54.03
2024-05-09T06:52:36.763Z,50.97
2024-05-09T06:56:02.040Z,53.20
2024-05-09T06:59:27.330Z,49.57
2024-05-09T07:02:52.720Z,49.43
2024-05-09T07:06:17.857Z,47.83
2024-05-09T07:09:43.133Z,43.42
2024-05-09T07:13:11.873Z,43.83
2024-05-09T07:16:37.312Z,47.45
2024-05-09T07:20:02.350Z,45.65
2024-05-09T07:23:27.796Z,44.97
2024-05-09T07:26:53.002Z,44.07
2024-05-09T07:30:23.760Z,42.25
2024-05-09T07:33:56.685Z,39.35
2024-05-09T07:37:21.687Z,40.88
2024-05-09T07:40:46.985Z,42.83
2024-05-09T07:44:12.279Z,38.57
2024-05-09T07:48:58.100Z,39.90
2024-05-09T07:54:52.170Z,37.33
2024-05-09T07:58:17.282Z,40.20
2024-05-09T08:01:42.560Z,41.65
2024-05-09T08:05:07.787Z,37.80
2024-05-09T08:08:33.153Z,43.33
2024-05-09T08:11:59.062Z,38.43
2024-05-09T08:15:24.303Z,37.40
2024-05-09T08:18:49.567Z,37.78
2024-05-09T08:22:14.802Z,42.87
2024-05-09T08:25:43.037Z,38.28
2024-05-09T08:29:09.657Z,35.45
2024-05-09T08:32:39.641Z,34.15
2024-05-09T08:36:04.970Z,37.55
2024-05-09T08:39:30.226Z,31.67
2024-05-09T08:42:56.132Z,33.05
2024-05-09T08:46:21.791Z,32.70
2024-05-09T08:49:48.203Z,30.50
2024-05-09T08:56:42.238Z,29.70
2024-05-09T09:00:12.695Z,29.63
2024-05-09T09:03:41.132Z,26.15
2024-05-09T09:07:09.236Z,25.30
2024-05-09T09:10:35.534Z,24.45
2024-05-09T09:14:01.018Z,27.58
2024-05-09T09:17:36.276Z,25.17
2024-05-09T09:21:02.790Z,24.63
2024-05-09T09:24:28.140Z,22.15
2024-05-09T09:27:55.534Z,26.20
2024-05-09T09:31:20.826Z,23.85
2024-05-09T09:34:47.400Z,23.10
2024-05-09T09:38:13.235Z,21.73
2024-05-09T09:41:40.441Z,23.35
2024-05-09T09:45:07.499Z,16.45
2024-05-09T09:48:33.452Z,23.67
2024-05-09T09:52:02.446Z,18.98
2024-05-09T09:55:28.526Z,22.38
2024-05-09T09:58:54.327Z,19.70
2024-05-09T10:02:20.008Z,15.65
2024-05-09T10:05:47.284Z,14.40
2024-05-09T10:09:18.010Z,15.52
2024-05-09T10:12:51.938Z,16.83
2024-05-09T10:16:20.406Z,15.98
2024-05-09T10:19:46.093Z,13.93
2024-05-09T10:23:24.000Z,20.77
2024-05-09T10:27:03.773Z,9.50
2024-05-09T10:30:34.239Z,10.35
2024-05-09T10:34:02.881Z,11.52
2024-05-09T10:37:31.096Z,12.27
2024-05-09T10:41:00.094Z,12.98
2024-05-09T10:44:25.228Z,11.70
2024-05-09T10:47:51.195Z,17.20
2024-05-09T10:51:16.668Z,15.73
2024-05-09T10:54:42.552Z,16.48
2024-05-09T10:58:16.691Z,15.25
2024-05-09T11:01:41.916Z,15.80
2024-05-09T11:05:07.075Z,15.50
2024-05-09T11:08:32.635Z,16.67
2024-05-09T11:11:58.498Z,16.15
2024-05-09T11:15:24.304Z,17.98
2024-05-09T11:18:56.311Z,13.63
2024-05-09T11:22:24.884Z,13.93
2024-05-09T11:25:53.620Z,13.10
2024-05-09T11:29:19.646Z,13.60
2024-05-09T11:32:45.295Z,11.68
2024-05-09T11:36:10.350Z,14.57
2024-05-09T11:39:35.719Z,10.85
2024-05-09T11:43:00.872Z,16.02
2024-05-09T11:46:26.134Z,12.38
2024-05-09T11:49:51.222Z,10.73
2024-05-09T11:53:16.377Z,14.77
2024-05-09T11:56:41.372Z,12.32
2024-05-09T12:00:09.398Z,9.43
2024-05-09T12:03:35.017Z,8.27
2024-05-09T12:07:00.390Z,9.88
2024-05-09T12:10:32.678Z,13.73
2024-05-09T12:14:00.514Z,12.85
2024-05-09T12:17:25.816Z,11.43
2024-05-09T12:20:51.065Z,16.52
2024-05-09T12:24:18.247Z,10.95
2024-05-09T12:27:43.549Z,8.57
2024-05-09T12:31:08.907Z,11.45
2024-05-09T12:34:34.109Z,10.63
2024-05-09T12:37:59.428Z,14.93
2024-05-09T12:41:25.398Z,13.68
2024-05-09T12:48:15.507Z,12.27
2024-05-09T12:51:40.606Z,8.77
2024-05-09T12:55:06.067Z,15.37
2024-05-09T12:58:31.235Z,16.05
2024-05-09T13:01:58.783Z,13.10
2024-05-09T13:05:25.994Z,12.27
2024-05-09T13:08:51.401Z,11.68
2024-05-09T13:12:16.581Z,12.70
2024-05-09T13:15:41.736Z,10.93
2024-05-09T13:19:07.434Z,10.80
2024-05-09T13:22:32.387Z,8.43
2024-05-09T13:25:57.468Z,10.05
2024-05-09T13:29:22.504Z,10.15
2024-05-09T13:32:47.661Z,12.68
2024-05-09T13:36:12.809Z,11.45
2024-05-09T13:39:38.120Z,13.88
2024-05-09T13:43:04.064Z,10.85
2024-05-09T13:46:29.793Z,12.02
2024-05-09T13:49:54.956Z,11.20
2024-05-09T13:53:20.187Z,7.77
2024-05-09T13:56:45.447Z,8.45
2024-05-09T14:00:22.895Z,10.52
2024-05-09T14:03:56.015Z,11.70
2024-05-09T14:07:21.894Z,11.88
2024-05-09T14:10:47.573Z,13.80
2024-05-09T14:14:13.503Z,9.70
2024-05-09T14:17:38.619Z,12.20
2024-05-09T14:21:06.434Z,12.37
2024-05-09T14:24:32.089Z,14.27
2024-05-09T14:27:57.669Z,12.02
2024-05-09T14:31:23.036Z,9.63
2024-05-09T14:34:48.409Z,13.35
2024-05-09T14:38:13.823Z,11.00
2024-05-09T14:41:40.359Z,7.78
2024-05-09T14:45:06.175Z,10.15
2024-05-09T14:48:31.294Z,12.38
2024-05-09T14:51:56.619Z,7.03
2024-05-09T14:55:21.616Z,7.27
2024-05-09T14:58:46.948Z,12.18
2024-05-09T15:02:12.206Z,9.95
2024-05-09T15:05:37.589Z,15.05
2024-05-09T15:09:07.537Z,7.97
2024-05-09T15:12:33.364Z,7.07
2024-05-09T15:15:58.371Z,8.52
2024-05-09T15:19:23.761Z,8.55
2024-05-09T15:22:48.875Z,9.65
2024-05-09T15:26:13.924Z,11.43
2024-05-09T15:29:39.407Z,10.27
2024-05-09T15:33:06.961Z,12.88
2024-05-09T15:36:32.830Z,10.85
2024-05-09T15:39:58.702Z,9.57
2024-05-09T15:43:25.020Z,12.75
2024-05-09T15:46:50.358Z,11.45
2024-05-09T15:50:20.610Z,13.17
2024-05-09T15:53:53.556Z,11.93
2024-05-09T15:57:18.558Z,11.80
2024-05-09T16:00:45.049Z,9.32
2024-05-09T16:04:12.024Z,10.55
2024-05-09T16:07:37.075Z,13.80
2024-05-09T16:11:03.298Z,13.75
2024-05-09T16:14:28.562Z,11.07
2024-05-09T16:17:54.288Z,10.35
2024-05-09T16:21:19.996Z,13.43
2024-05-09T16:24:45.262Z,10.18
2024-05-09T16:28:11.244Z,12.52
2024-05-09T16:35:01.507Z,14.40
2024-05-09T16:38:26.810Z,12.20
2024-05-09T16:41:51.818Z,16.50
2024-05-09T16:45:17.004Z,10.30
2024-05-09T16:48:45.806Z,11.87
2024-05-09T16:52:11.280Z,9.77
2024-05-09T16:55:36.666Z,15.48
2024-05-09T16:59:02.124Z,10.20
2024-05-09T17:02:27.328Z,14.38
2024-05-09T17:05:52.724Z,11.20
2024-05-09T17:09:19.887Z,16.05
2024-05-09T17:12:45.696Z,13.40
2024-05-09T17:16:11.446Z,17.88
2024-05-09T17:19:40.554Z,12.68
2024-05-09T17:23:13.415Z,12.25
2024-05-09T17:26:39.354Z,17.17
2024-05-09T17:30:06.169Z,11.80
2024-05-09T17:33:34.206Z,17.83
2024-05-09T17:37:00.308Z,15.90
2024-05-09T17:40:32.707Z,10.40
2024-05-09T17:44:00.695Z,15.38
2024-05-09T17:47:25.947Z,9.18
2024-05-09T17:50:51.981Z,9.60
2024-05-09T17:54:26.242Z,12.68
2024-05-09T17:57:57.819Z,9.88
2024-05-09T18:01:25.693Z,11.15
2024-05-09T18:04:51.124Z,9.52
2024-05-09T18:08:16.539Z,9.95
2024-05-09T18:11:41.637Z,11.27
2024-05-09T18:15:09.754Z,18.25
2024-05-09T18:18:35.066Z,11.88
2024-05-09T18:22:01.842Z,10.10
2024-05-09T18:25:27.205Z,10.95
2024-05-09T18:28:52.192Z,11.27
2024-05-09T18:32:17.263Z,10.07
2024-05-09T18:35:42.633Z,7.53
2024-05-09T18:39:07.969Z,10.38
2024-05-09T18:42:33.268Z,10.40
2024-05-09T18:45:58.567Z,10.35
2024-05-09T18:49:24.087Z,5.68
2024-05-09T18:52:49.120Z,7.55
2024-05-09T18:56:14.415Z,8.27
2024-05-09T18:59:39.358Z,8.23
2024-05-09T19:03:06.239Z,10.15
2024-05-09T19:06:32.654Z,10.98
2024-05-09T19:09:58.004Z,8.13
2024-05-09T19:13:23.063Z,12.57
2024-05-09T19:16:48.520Z,11.60
2024-05-09T19:20:24.739Z,9.95
2024-05-09T19:23:55.644Z,12.95
2024-05-09T19:27:21.533Z,10.13
2024-05-09T19:30:46.832Z,12.07
2024-05-09T19:34:11.960Z,5.85
2024-05-09T19:37:37.007Z,10.93
2024-05-09T19:41:02.205Z,8.65
2024-05-09T19:44:29.325Z,8.88
2024-05-09T19:47:54.680Z,9.73
2024-05-09T19:51:19.766Z,8.25
2024-05-09T19:54:51.904Z,9.30
2024-05-09T19:58:31.708Z,19.00
2024-05-09T20:02:05.243Z,14.75
2024-05-09T20:05:49.591Z,11.25
2024-05-09T20:09:14.667Z,11.85
2024-05-09T20:12:39.908Z,10.32
2024-05-09T20:16:08.419Z,12.35
2024-05-09T20:19:38.362Z,8.73
2024-05-09T20:23:03.460Z,9.85
2024-05-09T20:26:30.849Z,11.65
2024-05-09T20:29:56.156Z,11.88
2024-05-09T20:33:25.778Z,10.05
2024-05-09T20:36:56.289Z,11.18
2024-05-09T20:40:32.727Z,13.13
2024-05-09T20:44:07.659Z,12.18
2024-05-09T20:47:32.818Z,13.05
2024-05-09T20:50:57.826Z,12.00
2024-05-09T20:54:23.061Z,12.85
2024-05-09T20:57:48.044Z,14.07
2024-05-09T21:01:13.249Z,15.00
2024-05-09T21:04:41.576Z,14.45
2024-05-09T21:08:06.810Z,16.33
2024-05-09T21:11:32.468Z,15.23
2024-05-09T21:14:57.506Z,10.40
2024-05-09T21:18:22.589Z,16.45
2024-05-09T21:21:48.466Z,14.82
2024-05-09T21:25:14.680Z,13.43
2024-05-09T21:28:39.902Z,21.13
2024-05-09T21:32:06.590Z,16.15
2024-05-09T21:35:31.674Z,18.98
2024-05-09T21:38:56.686Z,19.40
2024-05-09T21:42:21.737Z,13.85
2024-05-09T21:45:46.774Z,15.18
2024-05-09T21:49:12.101Z,14.98
2024-05-09T21:52:40.515Z,14.13
2024-05-09T21:56:05.940Z,17.80
2024-05-09T21:59:30.895Z,17.03
2024-05-09T22:02:55.918Z,15.03
2024-05-09T22:06:20.900Z,16.27
2024-05-09T22:09:46.167Z,13.80
2024-05-09T22:13:11.362Z,16.37
2024-05-09T22:16:40.504Z,17.13
2024-05-09T22:20:17.877Z,17.60
2024-05-09T22:23:46.879Z,19.20
2024-05-09T22:27:12.139Z,15.03
2024-05-09T22:30:39.647Z,17.57
2024-05-09T22:34:06.259Z,17.10
2024-05-09T22:37:31.317Z,14.75
2024-05-09T22:40:56.290Z,16.37
2024-05-09T22:44:21.511Z,19.00
2024-05-09T22:47:46.551Z,20.73
2024-05-09T22:51:12.270Z,21.17
2024-05-09T22:54:37.268Z,21.92
2024-05-09T22:58:02.884Z,17.00
2024-05-09T23:01:27.921Z,18.38
2024-05-09T23:04:53.185Z,14.57
2024-05-09T23:08:18.187Z,18.40
2024-05-09T23:11:43.818Z,18.30
2024-05-09T23:15:09.021Z,20.73
2024-05-09T23:18:34.259Z,15.40
2024-05-09T23:21:59.638Z,18.53
2024-05-09T23:25:24.679Z,17.90
2024-05-09T23:28:49.881Z,17.83
2024-05-09T23:32:14.860Z,17.20
2024-05-09T23:35:41.044Z,17.43
2024-05-09T23:39:06.210Z,17.15
2024-05-09T23:42:31.360Z,20.37
2024-05-09T23:45:56.396Z,20.67
2024-05-09T23:49:21.714Z,19.33
2024-05-09T23:52:46.879Z,18.03
2024-05-09T23:56:13.811Z,19.90
2024-05-09T23:59:39.066Z,17.10
